TimeEST,TemperatureF,Dew PointF,Humidity,Sea Level PressureIn,VisibilityMPH,Wind Direction,Wind SpeedMPH,Gust SpeedMPH,PrecipitationIn,Events,Conditions,WindDirDegrees,DateUTC
12:54 AM,39.0,33.1,79,30.40,10.0,NE,9.2,-,N/A,,Clear,40,2013-01-08 05:54:00
1:54 AM,39.0,32.0,76,30.41,10.0,NNE,4.6,-,N/A,,Clear,30,2013-01-08 06:54:00
2:54 AM,39.0,33.1,79,30.40,10.0,NNE,5.8,-,N/A,,Clear,30,2013-01-08 07:54:00
3:54 AM,39.9,34.0,79,30.39,10.0,NE,4.6,-,N/A,,Scattered Clouds,50,2013-01-08 08:54:00
4:54 AM,39.9,34.0,79,30.38,10.0,NE,5.8,-,N/A,,Clear,50,2013-01-08 09:54:00
5:54 AM,42.1,35.1,76,30.40,10.0,Calm,Calm,-,N/A,,Clear,0,2013-01-08 10:54:00
6:54 AM,44.1,37.9,79,30.40,10.0,ENE,6.9,-,N/A,,Partly Cloudy,70,2013-01-08 11:54:00
7:54 AM,45.0,39.0,80,30.42,10.0,East,8.1,-,N/A,,Scattered Clouds,80,2013-01-08 12:54:00
8:54 AM,50.0,42.1,74,30.43,10.0,East,8.1,-,N/A,,Partly Cloudy,80,2013-01-08 13:54:00
9:54 AM,55.4,44.6,67,30.45,10.0,East,6.9,-,N/A,,Smoke,90,2013-01-08 14:54:00
10:54 AM,57.9,45.0,62,30.44,10.0,ESE,8.1,-,N/A,,Mostly Cloudy,110,2013-01-08 15:54:00
11:54 AM,55.0,45.0,69,30.41,10.0,ENE,6.9,-,N/A,,Mostly Cloudy,60,2013-01-08 16:54:00
12:54 PM,60.1,46.0,60,30.38,10.0,ENE,5.8,-,N/A,,Mostly Cloudy,70,2013-01-08 17:54:00
1:54 PM,59.0,46.0,62,30.36,10.0,NNE,5.8,-,N/A,,Overcast,20,2013-01-08 18:54:00
2:54 PM,59.0,46.9,64,30.37,10.0,NE,4.6,-,N/A,,Mostly Cloudy,50,2013-01-08 19:54:00
3:54 PM,60.1,48.0,64,30.38,10.0,ENE,4.6,-,N/A,,Mostly Cloudy,60,2013-01-08 20:54:00
4:54 PM,55.0,46.9,74,30.38,10.0,NE,3.5,-,N/A,,Overcast,50,2013-01-08 21:54:00
5:54 PM,54.0,46.9,77,30.38,10.0,Calm,Calm,-,N/A,,Overcast,0,2013-01-08 22:54:00
6:54 PM,50.0,45.0,83,30.40,10.0,Calm,Calm,-,N/A,,Scattered Clouds,0,2013-01-08 23:54:00
7:54 PM,48.0,45.0,89,30.40,10.0,Calm,Calm,-,N/A,,Clear,0,2013-01-09 00:54:00
8:54 PM,46.0,43.0,89,30.40,9.0,Calm,Calm,-,N/A,,Clear,0,2013-01-09 01:54:00
9:54 PM,46.9,43.0,86,30.39,10.0,Calm,Calm,-,N/A,,Clear,0,2013-01-09 02:54:00
10:54 PM,46.0,43.0,89,30.40,9.0,Calm,Calm,-,N/A,,Clear,0,2013-01-09 03:54:00
11:54 PM,44.1,39.9,85,30.39,10.0,Calm,Calm,-,N/A,,Clear,0,2013-01-09 04:54:00